Main page
METAR-TAF:

METAR-TAF

Airports :

Kristiansand Airport. Kjevik

Kristiansand, Norway

latitude: 58-12N, longitude: 008-05E, elevation: 1 m

Current weather observation

The report was made 7 minutes ago, at 16:50 UTC
Wind 5 kt from the South/Southeast, varying between East/Southeast and Southwest
Temperature 15°C
Humidity 94%
Pressure 1010 hPa
Visibility: 9000 m
drizzle,

METAR: ENCN 251650Z 15005KT 120V220 9000 DZ VV012 15/14 Q1010

Time: 18:57 (16:57 UTC)

Forecast

The report was made 2 hours and 57 minutes ago, at 14:00 UTC
Forecast valid from 25 at 15 UTC to 25 at 21 UTC
Wind 12 kt from the South
Visibility: 9000 m
Scattered clouds at a height of 800 ft
Broken clouds at a height of 2000 ft
light rain, drizzle
Temporary
from 25 at 15 UTC to 25 at 21 UTC
Visibility: 4000 m
Broken clouds at a height of 800 ft
drizzle, rain, mist,

TAF: ENCN 251400Z 2515/2521 18012KT 9000 -RADZ SCT008 BKN020 TEMPO 2515/2521 4000 DZRA BR BKN008

Weather observations and forecasts of more than 4000 airports (METAR and TAF reports).

The available stations are represented by yellow and red dots on the map.

Hover mouse over dot to see the name of the station.

Then click to see weather observations and forecasts.

To change the map : click on the green buttons with a black cross to zoom in, on the green button with a dash to zoom out, or on the green arrows for adjacent maps.


METAR-TAF: